Kilkenny, Minnesota
Current Conditions -  °F | °C
As of 12:54 AM on Monday 22 Dec 2014 (Local Time) from KFBL Reporting Station
Haze Haze  
Wind Chill: 30°   Ceiling: 600
Heat Index: 39°   Visibility: 4mi
Dew Point: 37°   Wind: 17mph
Humidity: 93%   Direction: 150°SSE
Pressure: 29.7"   Gusts: 23mph
Location:  44.31°N, 93.57°W
Report Text: KFBL 220654Z AUTO 15015G20KT 4SM BR OVC006 04/03 A2970 RMK AO2
Loading
Personal Weather Stations






























Interactive Weather Map New forecast layout! Learn more

10-Day Weather Forecast

Advertisements
Track Severe Weather on mobile